createdAt,value
2017-07-15T00:01:23.173Z,76.18
2017-07-15T00:03:51.527Z,76.19
2017-07-15T00:06:20.285Z,76.46
2017-07-15T00:08:48.643Z,76.33
2017-07-15T00:11:17.005Z,75.87
2017-07-15T00:13:45.351Z,75.84
2017-07-15T00:16:14.099Z,75.43
2017-07-15T00:18:42.668Z,75.74
2017-07-15T00:21:11.230Z,76.04
2017-07-15T00:23:39.580Z,75.86
2017-07-15T00:26:08.327Z,75.71
2017-07-15T00:28:36.684Z,75.81
2017-07-15T00:31:05.041Z,76.16
2017-07-15T00:33:33.795Z,76.84
2017-07-15T00:36:02.139Z,76.71
2017-07-15T00:38:30.504Z,76.92
2017-07-15T00:40:58.851Z,77.11
2017-07-15T00:43:27.618Z,77.10
2017-07-15T00:45:55.976Z,77.30
2017-07-15T00:48:24.559Z,78.30
2017-07-15T00:50:52.904Z,78.61
2017-07-15T00:53:21.269Z,78.84
2017-07-15T00:55:50.027Z,79.67
2017-07-15T00:58:18.384Z,79.86
2017-07-15T01:00:46.747Z,79.40
2017-07-15T01:03:15.094Z,79.85
2017-07-15T01:05:43.757Z,80.46
2017-07-15T01:08:12.099Z,79.87
2017-07-15T01:10:40.455Z,79.92
2017-07-15T01:13:08.820Z,80.27
2017-07-15T01:15:37.171Z,80.45
2017-07-15T01:18:05.539Z,79.92
2017-07-15T01:20:33.891Z,80.32
2017-07-15T01:23:02.268Z,79.57
2017-07-15T01:25:30.624Z,79.10
2017-07-15T01:27:59.140Z,79.96
2017-07-15T01:30:27.487Z,79.76
2017-07-15T01:32:55.848Z,78.47
2017-07-15T01:35:24.617Z,78.35
2017-07-15T01:37:52.963Z,76.78
2017-07-15T01:40:21.315Z,76.61
2017-07-15T01:42:49.664Z,76.54
2017-07-15T01:45:18.027Z,76.07
2017-07-15T01:47:46.371Z,74.78
2017-07-15T01:50:14.957Z,74.30
2017-07-15T01:52:43.308Z,74.07
2017-07-15T01:55:11.651Z,73.76
2017-07-15T01:57:40.000Z,73.02
2017-07-15T02:00:08.377Z,72.34
2017-07-15T02:02:37.011Z,72.76
2017-07-15T02:05:05.760Z,72.38
2017-07-15T02:07:36.436Z,71.95
2017-07-15T02:10:05.175Z,72.04
2017-07-15T02:12:33.526Z,72.40
2017-07-15T02:15:01.875Z,72.06
2017-07-15T02:17:30.411Z,71.75
2017-07-15T02:22:26.411Z,72.32
2017-07-15T02:24:55.163Z,73.13
2017-07-15T02:27:23.544Z,73.67
2017-07-15T02:29:51.909Z,74.05
2017-07-15T02:32:20.265Z,74.01
2017-07-15T02:34:48.924Z,74.40
2017-07-15T02:37:17.668Z,74.25
2017-07-15T02:39:46.010Z,74.09
2017-07-15T02:42:14.582Z,74.19
2017-07-15T02:44:43.316Z,74.42
2017-07-15T02:47:11.680Z,74.37
2017-07-15T02:49:40.034Z,74.72
2017-07-15T02:52:08.401Z,74.61
2017-07-15T02:54:37.160Z,75.74
2017-07-15T02:57:05.528Z,76.31
2017-07-15T02:59:33.877Z,76.03
2017-07-15T03:02:02.583Z,76.14
2017-07-15T03:04:30.931Z,76.14
2017-07-15T03:06:59.600Z,76.69
2017-07-15T03:09:28.347Z,76.38
2017-07-15T03:11:56.695Z,76.51
2017-07-15T03:14:25.060Z,76.62
2017-07-15T03:16:53.808Z,76.69
2017-07-15T03:19:22.280Z,75.93
2017-07-15T03:21:50.632Z,76.21
2017-07-15T03:24:18.987Z,76.59
2017-07-15T03:27:05.633Z,76.49
2017-07-15T03:29:34.004Z,76.22
2017-07-15T03:32:02.346Z,76.40
2017-07-15T03:34:31.397Z,76.60
2017-07-15T03:36:59.749Z,76.73
2017-07-15T03:39:28.105Z,76.58
2017-07-15T03:41:56.855Z,76.93
2017-07-15T03:44:25.197Z,76.50
2017-07-15T03:46:53.557Z,76.74
2017-07-15T03:49:22.298Z,76.70
2017-07-15T03:51:50.691Z,76.37
2017-07-15T03:54:19.036Z,76.62
2017-07-15T03:56:47.505Z,76.37
2017-07-15T03:59:15.851Z,75.93
2017-07-15T04:01:44.591Z,75.37
2017-07-15T04:04:12.947Z,75.08
2017-07-15T04:06:41.308Z,74.32
2017-07-15T04:09:10.055Z,70.69
2017-07-15T04:11:38.409Z,67.31
2017-07-15T04:14:06.895Z,67.94
2017-07-15T04:16:35.230Z,68.92
2017-07-15T04:19:03.571Z,60.73
2017-07-15T04:21:31.937Z,57.61
2017-07-15T04:24:00.297Z,57.10
2017-07-15T04:26:28.647Z,57.79
2017-07-15T04:28:57.387Z,52.93
2017-07-15T04:31:25.739Z,55.44
2017-07-15T04:33:54.088Z,61.05
2017-07-15T04:36:22.847Z,60.86
2017-07-15T04:38:51.188Z,60.87
2017-07-15T04:41:19.540Z,59.20
2017-07-15T04:43:48.288Z,64.36
2017-07-15T04:46:16.627Z,64.91
2017-07-15T04:48:44.997Z,62.67
2017-07-15T04:51:13.346Z,59.35
2017-07-15T04:53:41.712Z,53.84
2017-07-15T04:56:10.067Z,49.78
2017-07-15T04:58:38.424Z,46.50
2017-07-15T05:01:06.779Z,46.07
2017-07-15T05:03:35.839Z,42.51
2017-07-15T05:06:04.181Z,40.92
2017-07-15T05:08:32.525Z,40.17
2017-07-15T05:11:01.291Z,39.51
2017-07-15T05:13:29.632Z,40.52
2017-07-15T05:15:57.992Z,38.53
2017-07-15T05:18:26.333Z,38.35
2017-07-15T05:20:55.000Z,36.49
2017-07-15T05:23:23.341Z,35.92
2017-07-15T05:25:51.689Z,35.06
2017-07-15T05:28:20.044Z,34.31
2017-07-15T05:30:48.388Z,34.90
2017-07-15T05:33:16.901Z,35.86
2017-07-15T05:35:45.251Z,33.13
2017-07-15T05:38:13.660Z,31.97
2017-07-15T05:40:42.025Z,30.50
2017-07-15T05:43:10.386Z,31.94
2017-07-15T05:45:38.758Z,32.57
2017-07-15T05:48:07.109Z,33.46
2017-07-15T05:50:35.870Z,31.70
2017-07-15T05:53:04.226Z,33.08
2017-07-15T05:55:32.730Z,32.98
2017-07-15T05:58:01.085Z,29.66
2017-07-15T06:00:29.430Z,28.48
2017-07-15T06:02:57.779Z,29.80
2017-07-15T06:05:26.149Z,31.17
2017-07-15T06:07:54.714Z,29.61
2017-07-15T06:10:23.059Z,28.85
2017-07-15T06:12:51.924Z,28.07
2017-07-15T06:15:20.274Z,28.77
2017-07-15T06:17:48.897Z,30.43
2017-07-15T06:20:17.660Z,27.14
2017-07-15T06:22:46.010Z,27.59
2017-07-15T06:25:14.363Z,27.94
2017-07-15T06:27:42.763Z,28.23
2017-07-15T06:30:11.114Z,29.60
2017-07-15T06:32:39.851Z,29.80
2017-07-15T06:35:08.365Z,28.04
2017-07-15T06:37:36.707Z,26.14
2017-07-15T06:40:05.061Z,28.38
2017-07-15T06:42:33.410Z,27.02
2017-07-15T06:45:02.156Z,28.88
2017-07-15T06:47:30.545Z,28.21
2017-07-15T06:49:58.901Z,26.88
2017-07-15T06:52:27.252Z,26.75
2017-07-15T06:54:55.591Z,26.72
2017-07-15T06:57:23.944Z,26.56
2017-07-15T06:59:52.306Z,24.91
2017-07-15T07:02:20.808Z,24.66
2017-07-15T07:04:49.165Z,28.60
2017-07-15T07:07:17.517Z,29.03
2017-07-15T07:09:46.280Z,27.63
2017-07-15T07:12:14.630Z,26.17
2017-07-15T07:14:42.979Z,26.43
2017-07-15T07:17:11.353Z,25.57
2017-07-15T07:19:40.103Z,26.40
2017-07-15T07:22:08.439Z,26.37
2017-07-15T07:24:36.800Z,25.42
2017-07-15T07:27:05.531Z,26.36
2017-07-15T07:29:33.893Z,25.51
2017-07-15T07:32:02.242Z,24.56
2017-07-15T07:34:31.200Z,24.60
2017-07-15T07:36:59.542Z,22.40
2017-07-15T07:39:27.949Z,24.04
2017-07-15T07:41:56.314Z,25.39
2017-07-15T07:44:24.667Z,22.68
2017-07-15T07:46:53.016Z,23.01
2017-07-15T07:49:21.355Z,22.98
2017-07-15T07:51:49.711Z,23.84
2017-07-15T07:54:18.056Z,22.84
2017-07-15T07:56:46.803Z,23.16
2017-07-15T07:59:15.163Z,24.06
2017-07-15T08:01:43.702Z,26.48
2017-07-15T08:04:12.053Z,28.27
2017-07-15T08:06:40.533Z,30.94
2017-07-15T08:09:08.887Z,30.35
2017-07-15T08:11:37.252Z,26.87
2017-07-15T08:14:05.685Z,25.94
2017-07-15T08:16:34.167Z,26.14
2017-07-15T08:19:04.880Z,24.44
2017-07-15T08:21:33.563Z,24.41
2017-07-15T08:24:01.934Z,24.26
2017-07-15T08:26:30.297Z,24.46
2017-07-15T08:28:58.807Z,23.93
2017-07-15T08:31:27.161Z,23.44
2017-07-15T08:33:55.513Z,25.29
2017-07-15T08:36:24.262Z,24.36
2017-07-15T08:38:52.627Z,22.34
2017-07-15T08:41:20.975Z,22.66
2017-07-15T08:43:49.316Z,20.52
2017-07-15T08:46:17.675Z,22.80
2017-07-15T08:48:46.014Z,22.63
2017-07-15T08:51:14.372Z,23.57
2017-07-15T08:53:43.128Z,23.28
2017-07-15T08:56:11.909Z,24.73
2017-07-15T08:58:40.541Z,22.10
2017-07-15T09:01:09.289Z,20.43
2017-07-15T09:03:37.650Z,20.49
2017-07-15T09:06:06.000Z,20.14
2017-07-15T09:08:34.351Z,20.38
2017-07-15T09:11:02.704Z,21.87
2017-07-15T09:13:31.055Z,21.74
2017-07-15T09:15:59.396Z,19.65
2017-07-15T09:18:28.153Z,19.31
2017-07-15T09:20:56.524Z,18.45
2017-07-15T09:23:25.101Z,21.56
2017-07-15T09:25:53.449Z,20.73
2017-07-15T09:28:21.826Z,21.52
2017-07-15T09:30:50.185Z,23.03
2017-07-15T09:33:19.180Z,21.13
2017-07-15T09:35:47.928Z,20.13
2017-07-15T09:38:16.630Z,21.90
2017-07-15T09:40:45.090Z,25.02
2017-07-15T09:43:13.431Z,27.26
2017-07-15T09:45:41.952Z,29.76
2017-07-15T09:48:10.303Z,24.26
2017-07-15T09:50:38.657Z,21.15
2017-07-15T09:53:07.412Z,20.73
2017-07-15T09:55:35.752Z,22.14
2017-07-15T09:58:04.111Z,28.45
2017-07-15T10:00:32.847Z,31.91
2017-07-15T10:03:01.204Z,32.68
2017-07-15T10:05:29.566Z,35.21
2017-07-15T10:07:57.938Z,37.57
2017-07-15T10:10:26.300Z,39.23
2017-07-15T10:12:54.661Z,38.65
2017-07-15T10:15:23.009Z,38.57
2017-07-15T10:17:51.495Z,38.08
2017-07-15T10:20:19.910Z,33.99
2017-07-15T10:22:48.264Z,31.18
2017-07-15T10:25:16.611Z,28.36
2017-07-15T10:27:45.031Z,30.42
2017-07-15T10:30:13.397Z,30.61
2017-07-15T10:32:41.738Z,30.28
2017-07-15T10:35:10.101Z,29.06
2017-07-15T10:37:38.461Z,28.55
2017-07-15T10:40:07.093Z,27.11
2017-07-15T10:42:35.436Z,27.53
2017-07-15T10:45:03.832Z,31.86
2017-07-15T10:47:32.610Z,33.34
2017-07-15T10:50:01.385Z,35.06
2017-07-15T10:52:29.747Z,36.41
2017-07-15T10:54:58.102Z,37.27
2017-07-15T10:57:26.451Z,38.53
2017-07-15T10:59:54.806Z,37.84
2017-07-15T11:02:23.160Z,34.80
2017-07-15T11:04:51.502Z,34.32
2017-07-15T11:07:19.847Z,30.96
2017-07-15T11:09:48.205Z,32.60
2017-07-15T11:12:16.555Z,34.39
2017-07-15T11:14:44.916Z,32.47
2017-07-15T11:17:13.256Z,33.32
2017-07-15T11:19:41.620Z,32.40
2017-07-15T11:22:09.974Z,31.21
2017-07-15T11:24:38.451Z,33.03
2017-07-15T11:27:06.853Z,32.76
2017-07-15T11:29:35.197Z,34.98
2017-07-15T11:32:03.571Z,36.58
2017-07-15T11:34:31.926Z,38.51
2017-07-15T11:37:00.689Z,39.27
2017-07-15T11:39:29.031Z,38.60
2017-07-15T11:41:57.384Z,39.47
2017-07-15T11:44:26.131Z,40.21
2017-07-15T11:46:54.500Z,37.92
2017-07-15T11:49:22.857Z,38.24
2017-07-15T11:51:51.337Z,38.70
2017-07-15T11:54:19.688Z,40.48
2017-07-15T11:56:48.049Z,40.95
2017-07-15T11:59:16.400Z,40.73
2017-07-15T12:01:44.748Z,40.64
2017-07-15T12:04:13.156Z,42.18
2017-07-15T12:06:41.498Z,44.01
2017-07-15T12:09:09.911Z,42.97
2017-07-15T12:11:38.279Z,42.50
2017-07-15T12:14:06.640Z,42.64
2017-07-15T12:16:34.991Z,42.30
2017-07-15T12:19:03.532Z,42.19
2017-07-15T12:21:31.875Z,43.49
2017-07-15T12:24:00.632Z,42.83
2017-07-15T12:26:28.978Z,42.02
2017-07-15T12:28:57.336Z,42.62
2017-07-15T12:31:25.692Z,42.55
2017-07-15T12:33:54.436Z,41.81
2017-07-15T12:36:22.802Z,42.43
2017-07-15T12:38:51.152Z,42.19
2017-07-15T12:41:19.680Z,42.35
2017-07-15T12:43:48.024Z,42.97
2017-07-15T12:46:16.372Z,43.12
2017-07-15T12:48:45.130Z,43.62
2017-07-15T12:51:13.485Z,42.78
2017-07-15T12:53:42.129Z,42.87
2017-07-15T12:56:10.880Z,42.91
2017-07-15T12:58:39.240Z,41.49
2017-07-15T13:01:07.591Z,41.76
2017-07-15T13:03:36.348Z,42.17
2017-07-15T13:06:04.946Z,42.21
2017-07-15T13:08:33.890Z,42.48
2017-07-15T13:11:02.229Z,40.75
2017-07-15T13:13:30.582Z,41.21
2017-07-15T13:15:58.936Z,40.05
2017-07-15T13:18:27.291Z,40.70
2017-07-15T13:20:55.653Z,40.59
2017-07-15T13:23:24.004Z,40.25
2017-07-15T13:25:52.369Z,40.44
2017-07-15T13:28:20.981Z,40.19
2017-07-15T13:30:49.744Z,40.76
2017-07-15T13:33:18.109Z,41.62
2017-07-15T13:35:46.460Z,42.46
2017-07-15T13:38:15.391Z,41.16
2017-07-15T13:40:43.748Z,42.05
2017-07-15T13:43:12.114Z,41.31
2017-07-15T13:45:40.629Z,41.28
2017-07-15T13:48:09.242Z,40.13
2017-07-15T13:50:37.996Z,39.45
2017-07-15T13:53:06.360Z,40.82
2017-07-15T13:55:34.694Z,40.74
2017-07-15T13:58:03.455Z,40.50
2017-07-15T14:00:31.798Z,40.07
2017-07-15T14:03:00.157Z,40.67
2017-07-15T14:05:28.498Z,40.63
2017-07-15T14:07:57.065Z,39.92
2017-07-15T14:10:25.411Z,40.53
2017-07-15T14:12:53.772Z,40.87
2017-07-15T14:15:22.534Z,41.52
2017-07-15T14:17:50.886Z,40.51
2017-07-15T14:20:19.264Z,39.04
2017-07-15T14:22:47.628Z,39.93
2017-07-15T14:25:16.012Z,40.61
2017-07-15T14:27:44.646Z,41.02
2017-07-15T14:30:13.390Z,40.18
2017-07-15T14:32:41.749Z,40.46
2017-07-15T14:35:10.390Z,42.63
2017-07-15T14:37:38.740Z,42.47
2017-07-15T14:40:07.092Z,43.00
2017-07-15T14:42:35.448Z,43.26
2017-07-15T14:45:04.183Z,43.50
2017-07-15T14:47:32.539Z,43.83
2017-07-15T14:50:00.896Z,43.93
2017-07-15T14:52:29.650Z,43.12
2017-07-15T14:54:58.069Z,43.20
2017-07-15T14:57:26.428Z,43.28
2017-07-15T14:59:54.773Z,43.21
2017-07-15T15:02:23.127Z,42.82
2017-07-15T15:04:51.480Z,42.48
2017-07-15T15:07:20.237Z,43.03
2017-07-15T15:09:48.590Z,43.14
2017-07-15T15:12:17.185Z,42.67
2017-07-15T15:14:45.631Z,42.87
2017-07-15T15:17:13.991Z,42.67
2017-07-15T15:19:42.758Z,42.51
2017-07-15T15:22:11.099Z,43.02
2017-07-15T15:24:39.471Z,42.92
2017-07-15T15:27:07.829Z,43.85
2017-07-15T15:29:36.174Z,44.15
2017-07-15T15:32:04.519Z,44.76
2017-07-15T15:34:33.202Z,44.45
2017-07-15T15:37:01.553Z,44.96
2017-07-15T15:39:29.894Z,44.94
2017-07-15T15:41:58.252Z,45.65
2017-07-15T15:44:26.634Z,45.81
2017-07-15T15:46:54.998Z,45.12
2017-07-15T15:49:23.385Z,44.88
2017-07-15T15:51:51.744Z,45.38
2017-07-15T15:54:20.504Z,45.90
2017-07-15T15:56:49.257Z,46.23
2017-07-15T15:59:17.600Z,45.78
2017-07-15T16:01:46.311Z,45.45
2017-07-15T16:04:14.655Z,44.51
2017-07-15T16:06:43.007Z,43.98
2017-07-15T16:09:11.775Z,44.41
2017-07-15T16:11:40.127Z,44.93
2017-07-15T16:14:08.760Z,44.49
2017-07-15T16:16:37.111Z,44.75
2017-07-15T16:19:05.485Z,45.71
2017-07-15T16:21:33.828Z,45.65
2017-07-15T16:24:02.299Z,45.13
2017-07-15T16:26:30.645Z,46.01
2017-07-15T16:28:59.026Z,47.23
2017-07-15T16:31:27.390Z,50.30
2017-07-15T16:33:55.737Z,51.58
2017-07-15T16:36:24.105Z,50.96
2017-07-15T16:38:52.456Z,51.03
2017-07-15T16:41:20.816Z,51.21
2017-07-15T16:43:49.155Z,51.37
2017-07-15T16:46:17.510Z,51.11
2017-07-15T16:48:45.852Z,51.23
2017-07-15T16:51:14.613Z,51.40
2017-07-15T16:53:42.957Z,52.15
2017-07-15T16:56:11.297Z,54.40
2017-07-15T16:58:39.663Z,59.99
2017-07-15T17:01:08.008Z,62.33
2017-07-15T17:03:36.373Z,63.96
2017-07-15T17:06:04.718Z,64.90
2017-07-15T17:08:33.066Z,66.11
2017-07-15T17:11:01.422Z,69.23
2017-07-15T17:13:29.787Z,68.56
2017-07-15T17:15:58.150Z,71.70
2017-07-15T17:18:27.021Z,68.24
2017-07-15T17:20:55.363Z,69.99
2017-07-15T17:23:23.744Z,69.71
2017-07-15T17:25:52.109Z,69.94
2017-07-15T17:28:20.515Z,72.20
2017-07-15T17:30:48.872Z,71.84
2017-07-15T17:33:17.250Z,73.08
2017-07-15T17:35:45.609Z,71.46
2017-07-15T17:38:14.352Z,70.96
2017-07-15T17:40:42.929Z,71.52
2017-07-15T17:43:11.322Z,71.46
2017-07-15T17:45:39.669Z,69.79
2017-07-15T17:48:08.037Z,72.95
2017-07-15T17:50:36.393Z,71.26
2017-07-15T17:53:05.167Z,69.58
2017-07-15T17:55:33.930Z,71.71
2017-07-15T17:58:02.282Z,70.27
2017-07-15T18:00:30.637Z,70.33
2017-07-15T18:02:59.001Z,70.84
2017-07-15T18:05:27.756Z,71.96
2017-07-15T18:07:56.104Z,72.67
2017-07-15T18:10:24.442Z,71.60
2017-07-15T18:12:53.401Z,72.75
2017-07-15T18:15:21.741Z,74.39
2017-07-15T18:17:50.103Z,77.07
2017-07-15T18:20:18.846Z,77.46
2017-07-15T18:22:47.187Z,79.55
2017-07-15T18:25:15.539Z,82.23
2017-07-15T18:27:44.289Z,82.03
2017-07-15T18:30:12.639Z,83.37
2017-07-15T18:32:40.980Z,84.38
2017-07-15T18:35:09.341Z,86.50
2017-07-15T18:37:37.693Z,82.26
2017-07-15T18:40:06.060Z,81.29
2017-07-15T18:42:34.402Z,81.87
2017-07-15T18:45:03.347Z,81.34
2017-07-15T18:47:31.712Z,80.37
2017-07-15T18:50:00.065Z,80.16
2017-07-15T18:52:29.149Z,82.06
2017-07-15T18:54:57.891Z,81.43
2017-07-15T18:57:26.250Z,81.46
2017-07-15T18:59:54.604Z,82.56
2017-07-15T19:02:23.347Z,82.18
2017-07-15T19:04:51.705Z,81.81
2017-07-15T19:07:20.066Z,81.46
2017-07-15T19:09:48.419Z,81.62
2017-07-15T19:12:17.192Z,80.19
2017-07-15T19:14:45.549Z,80.74
2017-07-15T19:17:14.032Z,79.60
2017-07-15T19:19:42.512Z,78.84
2017-07-15T19:22:11.147Z,82.51
2017-07-15T19:24:39.506Z,82.42
2017-07-15T19:27:07.854Z,82.03
2017-07-15T19:29:36.212Z,80.28
2017-07-15T19:32:04.566Z,80.88
2017-07-15T19:34:33.552Z,80.82
2017-07-15T19:37:02.289Z,81.79
2017-07-15T19:39:30.644Z,82.12
2017-07-15T19:41:58.997Z,80.83
2017-07-15T19:44:27.741Z,81.77
2017-07-15T19:46:56.088Z,81.58
2017-07-15T19:49:24.596Z,81.29
2017-07-15T19:51:52.949Z,82.16
2017-07-15T19:54:21.286Z,82.67
2017-07-15T19:56:49.635Z,82.69
2017-07-15T19:59:17.979Z,83.05
2017-07-15T20:01:46.345Z,82.44
2017-07-15T20:04:15.337Z,82.77
2017-07-15T20:06:44.092Z,83.14
2017-07-15T20:09:12.436Z,84.14
2017-07-15T20:11:40.801Z,83.81
2017-07-15T20:14:09.148Z,81.60
2017-07-15T20:16:37.700Z,83.52
2017-07-15T20:19:06.048Z,83.61
2017-07-15T20:21:34.400Z,84.50
2017-07-15T20:24:03.147Z,85.13
2017-07-15T20:26:31.496Z,86.06
2017-07-15T20:28:59.853Z,86.60
2017-07-15T20:31:28.599Z,86.99
2017-07-15T20:33:56.979Z,86.98
2017-07-15T20:36:30.827Z,86.63
2017-07-15T20:38:59.575Z,86.57
2017-07-15T20:41:27.920Z,87.15
2017-07-15T20:43:56.295Z,87.04
2017-07-15T20:46:24.653Z,86.94
2017-07-15T20:48:53.416Z,87.65
2017-07-15T20:51:21.784Z,87.94
2017-07-15T20:54:06.938Z,87.61
2017-07-15T20:56:35.297Z,87.45
2017-07-15T20:59:03.917Z,87.14
2017-07-15T21:01:32.265Z,86.68
2017-07-15T21:04:00.632Z,86.31
2017-07-15T21:06:29.296Z,86.61
2017-07-15T21:08:58.031Z,86.72
2017-07-15T21:11:26.392Z,87.06
2017-07-15T21:13:54.739Z,86.90
2017-07-15T21:16:23.490Z,86.09
2017-07-15T21:18:51.846Z,85.82
2017-07-15T21:21:20.551Z,86.11
2017-07-15T21:23:48.961Z,85.27
2017-07-15T21:26:17.318Z,84.90
2017-07-15T21:28:45.677Z,84.78
2017-07-15T21:31:14.033Z,83.80
2017-07-15T21:33:42.393Z,84.05
2017-07-15T21:36:11.135Z,84.47
2017-07-15T21:38:39.487Z,83.62
2017-07-15T21:41:07.831Z,83.71
2017-07-15T21:43:36.178Z,84.29
2017-07-15T21:46:04.527Z,83.59
2017-07-15T21:48:32.880Z,83.92
2017-07-15T21:51:01.614Z,84.98
2017-07-15T21:53:30.199Z,84.35
2017-07-15T21:55:58.543Z,84.25
2017-07-15T21:58:26.886Z,84.28
2017-07-15T22:00:55.239Z,84.86
2017-07-15T22:03:23.583Z,84.38
2017-07-15T22:05:51.935Z,85.09
2017-07-15T22:08:20.279Z,85.12
2017-07-15T22:10:48.633Z,84.85
2017-07-15T22:13:16.974Z,85.25
2017-07-15T22:15:45.724Z,84.75
2017-07-15T22:18:14.077Z,85.06
2017-07-15T22:20:42.669Z,85.22
2017-07-15T22:23:11.006Z,85.76
2017-07-15T22:25:41.953Z,85.76
2017-07-15T22:28:10.704Z,86.95
2017-07-15T22:30:39.319Z,87.84
2017-07-15T22:33:07.646Z,87.88
2017-07-15T22:35:35.986Z,87.73
2017-07-15T22:38:04.740Z,87.72
2017-07-15T22:40:33.086Z,87.88
2017-07-15T22:43:01.452Z,88.01
2017-07-15T22:45:29.799Z,88.42
2017-07-15T22:47:58.338Z,88.57
2017-07-15T22:50:26.726Z,88.41
2017-07-15T22:52:55.070Z,88.56
2017-07-15T22:55:23.431Z,88.23
2017-07-15T22:57:52.815Z,87.83
2017-07-15T23:00:21.171Z,88.47
2017-07-15T23:02:49.520Z,88.29
2017-07-15T23:05:17.879Z,88.27
2017-07-15T23:07:46.230Z,88.79
2017-07-15T23:10:14.775Z,88.51
2017-07-15T23:12:43.119Z,89.88
2017-07-15T23:15:11.863Z,90.35
2017-07-15T23:17:40.216Z,89.91
2017-07-15T23:20:08.587Z,89.50
2017-07-15T23:22:36.943Z,88.65
2017-07-15T23:25:05.686Z,88.41
2017-07-15T23:27:34.038Z,88.53
2017-07-15T23:30:02.384Z,88.51
2017-07-15T23:32:31.131Z,88.85
2017-07-15T23:34:59.479Z,88.37
2017-07-15T23:37:27.839Z,88.29
2017-07-15T23:39:56.587Z,88.36
2017-07-15T23:42:24.931Z,88.25
2017-07-15T23:44:53.286Z,87.73
2017-07-15T23:47:21.634Z,87.52
2017-07-15T23:49:49.987Z,87.85
2017-07-15T23:52:18.338Z,87.46
2017-07-15T23:54:46.692Z,87.82
2017-07-15T23:57:15.435Z,88.33
2017-07-15T23:59:44.663Z,88.16
